Data for 10/20/2007

Time Sea-Level Adjusted Pressure Absolute Pressure Temperature Relative Humidity Dew Point   
(mb) (inHg) (mb) (inHg) (C) (F) (%) (C) (F)
00:05 1007 29.74 836 24.69 5.5 42 79 2.3 36.1
00:10 1007 29.74 836 24.69 5.3 41.5 80 2 35.6
00:15 1007 29.74 837 24.72 5.4 41.8 80 2.2 35.9
00:20 1007 29.74 837 24.72 5.6 42.1 72 0.9 33.7
00:25 1007 29.74 836 24.69 5.6 42.1 72 1 33.8
00:30 1007 29.74 836 24.69 5.6 42.1 73 1.2 34.1
00:35 1007 29.74 837 24.72 5.5 41.9 76 1.6 34.8
00:40 1007 29.74 837 24.72 5.5 41.8 73 0.9 33.7
00:45 1007 29.74 837 24.72 5.4 41.8 74 1.2 34.2
00:50 1008 29.77 837 24.72 5.2 41.3 76 1.2 34.2
00:55 1008 29.77 837 24.72 5.1 41.2 76 1.2 34.1
01:00 1008 29.77 837 24.72 5.1 41.2 73 0.6 33.2
01:05 1007 29.74 837 24.72 5.2 41.4 75 1.2 34.1
01:10 1007 29.74 837 24.72 5.3 41.5 71 0.4 32.7
01:15 1007 29.74 837 24.72 5.3 41.6 73 1 33.7
01:20 1008 29.77 837 24.72 5.4 41.7 72 0.7 33.3
01:25 1007 29.74 837 24.72 5.5 41.8 68 0 32.1
01:30 1007 29.74 837 24.72 5.4 41.8 68 0 32
01:35 1008 29.77 837 24.72 5.4 41.8 71 0.7 33.3
01:40 1008 29.77 837 24.72 5.2 41.4 74 1 33.8
01:45 1008 29.77 837 24.72 4.9 40.9 74 0.7 33.2
01:50 1008 29.77 837 24.72 5.1 41.2 72 0.4 32.7
01:55 1008 29.77 837 24.72 5 41 69 -0.2 31.6
02:00 1008 29.77 837 24.72 5.2 41.4 71 0.4 32.7
02:05 1008 29.77 837 24.72 5.6 42 65 -0.5 31.1
02:10 1008 29.77 837 24.72 5.7 42.3 69 0.6 33
02:15 1008 29.77 837 24.72 5.7 42.3 66 -0.2 31.7
02:20 1008 29.77 837 24.72 5.8 42.4 67 0.1 32.1
02:25 1008 29.77 837 24.72 5.7 42.3 68 0.4 32.7
02:30 1008 29.77 837 24.72 5.6 42 66 -0.3 31.5
02:35 1008 29.77 837 24.72 5.5 41.9 69 0.2 32.4
02:40 1008 29.77 837 24.72 5.5 41.8 69 0.2 32.3
02:45 1007 29.74 837 24.72 5.4 41.8 67 -0.2 31.7
02:50 1007 29.74 837 24.72 5.3 41.6 68 0 32
02:55 1007 29.74 836 24.69 5.3 41.5 67 -0.3 31.4
03:00 1007 29.74 837 24.72 5.3 41.6 67 -0.3 31.5
03:05 1007 29.74 837 24.72 5.4 41.7 67 -0.2 31.6
03:10 1007 29.74 837 24.72 5.3 41.6 68 -0.2 31.7
03:15 1007 29.74 836 24.69 5.1 41.2 67 -0.4 31.3
03:20 1007 29.74 836 24.69 5 41 69 -0.2 31.6
03:25 1007 29.74 836 24.69 4.7 40.4 71 -0.2 31.6
03:30 1007 29.74 836 24.69 4.5 40.2 71 -0.2 31.6
03:35 1007 29.74 836 24.69 4.6 40.4 70 -0.3 31.4
03:40 1007 29.74 836 24.69 4.9 40.9 69 -0.3 31.5
03:45 1007 29.74 836 24.69 4.8 40.7 74 0.6 33.1
03:50 1007 29.74 836 24.69 4.5 40.1 75 0.5 32.8
03:55 1007 29.74 837 24.72 4.2 39.6 74 0.1 32.1
04:00 1007 29.74 836 24.69 4.3 39.8 74 0 32.1
04:05 1007 29.74 836 24.69 4.4 40 69 -0.7 30.7
04:10 1007 29.74 836 24.69 4.5 40.1 72 -0.1 31.9
04:15 1007 29.74 836 24.69 4.5 40.1 74 0.3 32.6
04:20 1007 29.74 836 24.69 4.4 39.9 76 0.5 33
04:25 1006 29.71 836 24.69 4.2 39.6 76 0.4 32.7
04:30 1006 29.71 835 24.66 4.1 39.3 77 0.4 32.8
04:35 1006 29.71 835 24.66 4.1 39.4 73 -0.4 31.4
04:40 1006 29.71 835 24.66 4.4 39.9 75 0.4 32.7
04:45 1006 29.71 835 24.66 4.3 39.7 77 0.6 33
04:50 1006 29.71 835 24.66 4.3 39.7 78 0.8 33.5
04:55 1006 29.71 836 24.69 4.1 39.4 81 1.2 34.2
05:00 1006 29.71 835 24.66 3.8 38.9 83 1.2 34.2
05:05 1006 29.71 836 24.69 3.6 38.4 84 1.1 33.9
05:10 1007 29.74 836 24.69 3.4 38.2 85 1.1 34
05:15 1007 29.74 836 24.69 3.3 38 86 1.2 34.1
05:20 1007 29.74 836 24.69 3.3 38 82 0.5 32.9
05:25 1007 29.74 836 24.69 3.7 38.6 79 0.4 32.7
05:30 1007 29.74 836 24.69 3.9 39.1 80 0.9 33.6
05:35 1007 29.74 836 24.69 4.2 39.5 73 -0.3 31.5
05:40 1007 29.74 836 24.69 4.3 39.7 77 0.5 33
05:45 1007 29.74 836 24.69 4.2 39.6 78 0.7 33.2
05:50 1007 29.74 836 24.69 4 39.2 78 0.6 33
05:55 1007 29.74 836 24.69 3.9 39 82 1 33.8
06:00 1007 29.74 836 24.69 3.4 38.2 85 1.1 34.1
06:05 1007 29.74 836 24.69 3.2 37.8 86 1 33.8
06:10 1007 29.74 836 24.69 3.1 37.6 84 0.7 33.3
06:15 1007 29.74 836 24.69 3.4 38.2 82 0.6 33.1
06:20 1007 29.74 836 24.69 3.7 38.7 79 0.5 32.9
06:25 1007 29.74 836 24.69 3.9 39 79 0.6 33.1
06:30 1007 29.74 836 24.69 3.7 38.6 83 1.1 34
06:35 1007 29.74 836 24.69 3.4 38 85 1 33.9
06:40 1007 29.74 836 24.69 3.3 37.9 83 0.7 33.3
06:45 1007 29.74 836 24.69 3.2 37.8 86 1.1 34
06:50 1007 29.74 836 24.69 3 37.5 86 1 33.7
06:55 1007 29.74 836 24.69 3.1 37.6 86 0.9 33.7
07:00 1007 29.74 836 24.69 3.3 37.9 86 1.1 34
07:05 1007 29.74 836 24.69 3.2 37.7 87 1.2 34.2
07:10 1007 29.74 836 24.69 3 37.4 87 1.1 33.9
07:15 1007 29.74 836 24.69 2.9 37.3 87 1.1 33.9
07:20 1006 29.71 836 24.69 2.9 37.2 86 0.9 33.5
07:25 1006 29.71 836 24.69 2.9 37.2 87 0.9 33.7
07:30 1006 29.71 836 24.69 2.8 37 88 1 33.8
07:35 1007 29.74 836 24.69 2.7 36.8 88 0.9 33.6
07:40 1007 29.74 836 24.69 2.7 36.9 83 0.2 32.3
07:45 1007 29.74 836 24.69 3 37.4 85 0.7 33.2
07:50 1007 29.74 836 24.69 3.1 37.5 86 0.9 33.6
07:55 1006 29.71 836 24.69 2.9 37.2 86 0.8 33.4
08:00 1007 29.74 836 24.69 2.8 37 84 0.3 32.5
08:05 1007 29.74 836 24.69 2.8 37.1 84 0.5 32.8
08:10 1007 29.74 836 24.69 2.9 37.2 80 -0.1 31.7
08:15 1007 29.74 836 24.69 3.2 37.7 82 0.4 32.8
08:20 1007 29.74 836 24.69 3.3 37.9 80 0.1 32.2
08:25 1007 29.74 836 24.69 3.4 38.2 80 0.4 32.7
08:30 1007 29.74 836 24.69 3.4 38.1 80 0.4 32.7
08:35 1007 29.74 836 24.69 3.2 37.7 83 0.5 32.9
08:40 1007 29.74 836 24.69 3 37.4 83 0.4 32.6
08:45 1008 29.77 837 24.72 3.3 37.9 80 0.2 32.3
08:50 1008 29.77 837 24.72 3.4 38.1 80 0.3 32.5
08:55 1008 29.77 837 24.72 3.4 38.1 81 0.5 32.8
09:00 1008 29.77 837 24.72 3.6 38.5 76 -0.2 31.7
09:05 1007 29.74 837 24.72 3.6 38.5 79 0.3 32.5
09:10 1007 29.74 837 24.72 3.6 38.6 80 0.5 32.8
09:15 1007 29.74 837 24.72 3.8 38.8 79 0.4 32.8
09:20 1008 29.77 837 24.72 4 39.1 78 0.4 32.8
09:25 1008 29.77 837 24.72 4.2 39.5 78 0.6 33.1
09:30 1008 29.77 837 24.72 4.3 39.8 75 0.2 32.4
09:35 1008 29.77 837 24.72 4.4 39.9 73 -0.1 31.9
09:40 1008 29.77 837 24.72 4.2 39.6 74 -0 32
09:45 1008 29.77 837 24.72 3.6 38.4 80 0.5 32.8
09:50 1008 29.77 838 24.75 3.1 37.6 81 0.1 32.2
09:55 1008 29.77 838 24.75 2.9 37.2 80 -0.3 31.5
10:00 1009 29.8 838 24.75 2.7 36.8 82 -0 32
10:05 1008 29.77 838 24.75 2.5 36.6 83 -0 32
10:10 1008 29.77 838 24.75 2.6 36.6 83 0 32
10:15 1008 29.77 838 24.75 2.6 36.8 84 0.2 32.4
10:20 1009 29.8 838 24.75 2.6 36.6 86 0.4 32.8
10:25 1009 29.8 838 24.75 2.4 36.4 87 0.5 32.9
10:30 1009 29.8 838 24.75 2.4 36.3 87 0.5 32.8
10:35 1009 29.8 838 24.75 2.3 36.2 88 0.6 33
10:40 1009 29.8 838 24.75 2.3 36.1 87 0.4 32.8
10:45 1009 29.8 838 24.75 2.4 36.3 87 0.5 32.8
10:50 1009 29.8 838 24.75 2.5 36.6 86 0.5 32.9
10:55 1009 29.8 838 24.75 2.6 36.8 85 0.4 32.7
11:00 1009 29.8 838 24.75 2.7 36.9 84 0.3 32.5
11:05 1009 29.8 838 24.75 2.8 37 82 0.1 32.1
11:10 1009 29.8 838 24.75 2.8 37 86 0.6 33.1
11:15 1009 29.8 838 24.75 2.7 36.9 84 0.3 32.5
11:20 1009 29.8 838 24.75 2.5 36.5 85 0.3 32.5
11:25 1009 29.8 839 24.78 2 35.5 88 0.2 32.3
11:30 1009 29.8 839 24.78 1.5 34.8 89 -0.1 31.9
11:35 1009 29.8 839 24.78 1.4 34.5 90 -0.1 31.8
11:40 1009 29.8 839 24.78 1.4 34.6 89 -0.2 31.7
11:45 1009 29.8 839 24.78 1.4 34.6 89 -0.1 31.8
11:50 1010 29.83 839 24.78 1.5 34.7 89 -0.2 31.7
11:55 1009 29.8 839 24.78 1.8 35.2 86 -0.4 31.3
12:00 1009 29.8 839 24.78 2 35.7 83 -0.6 30.9
12:05 1009 29.8 839 24.78 2.3 36.1 82 -0.5 31
12:10 1010 29.83 839 24.78 2.5 36.5 80 -0.7 30.8
12:15 1010 29.83 839 24.78 2.6 36.7 77 -1 30.3
12:20 1010 29.83 839 24.78 2.7 36.8 78 -0.7 30.7
12:25 1009 29.8 839 24.78 2.6 36.6 78 -0.8 30.5
12:30 1010 29.83 839 24.78 2.5 36.6 79 -0.7 30.8
12:35 1010 29.83 839 24.78 2.6 36.6 80 -0.5 31.1
12:40 1010 29.83 839 24.78 2.5 36.5 77 -1.1 30.1
12:45 1010 29.83 839 24.78 2.6 36.7 76 -1.1 30
12:50 1010 29.83 839 24.78 3 37.5 74 -1.1 30.1
12:55 1010 29.83 839 24.78 3.2 37.7 75 -0.8 30.6
13:00 1010 29.83 839 24.78 3.3 38 74 -0.9 30.3
13:05 1010 29.83 839 24.78 3.2 37.8 73 -1.1 29.9
13:10 1010 29.83 839 24.78 3.4 38.1 74 -0.9 30.5
13:15 1010 29.83 839 24.78 3.4 38.2 70 -1.4 29.4
13:20 1010 29.83 839 24.78 3.6 38.4 70 -1.4 29.4
13:25 1010 29.83 839 24.78 3.7 38.7 68 -1.6 29.2
13:30 1010 29.83 839 24.78 3.7 38.7 68 -1.6 29.2
13:35 1010 29.83 839 24.78 4 39.3 65 -1.9 28.6
13:40 1010 29.83 839 24.78 3.9 39 67 -1.6 29.1
13:45 1010 29.83 839 24.78 4.1 39.3 63 -2.3 27.8
13:50 1010 29.83 839 24.78 4.4 40 61 -2.4 27.8
13:55 1010 29.83 839 24.78 4.6 40.3 64 -1.6 29.1
14:00 1010 29.83 839 24.78 4.7 40.5 61 -2.1 28.2
14:05 1010 29.83 839 24.78 4.2 39.6 69 -1 30.3
14:10 1010 29.83 839 24.78 3.6 38.5 73 -0.8 30.5
14:15 1010 29.83 839 24.78 3.2 37.7 73 -1.3 29.7
14:20 1010 29.83 839 24.78 3.4 38.2 74 -0.8 30.5
14:25 1010 29.83 839 24.78 3.4 38.2 73 -0.9 30.5
14:30 1010 29.83 839 24.78 3.5 38.3 73 -0.8 30.5
14:35 1010 29.83 839 24.78 3.9 38.9 71 -0.9 30.3
14:40 1010 29.83 839 24.78 4.1 39.4 69 -1 30.2
14:45 1010 29.83 839 24.78 4.8 40.6 60 -2.4 27.7
14:50 1010 29.83 839 24.78 5.7 42.3 55 -2.6 27.3
14:55 1010 29.83 839 24.78 6.2 43.1 53 -2.8 27
15:00 1010 29.83 839 24.78 6 42.8 52 -3.1 26.5
15:05 1010 29.83 839 24.78 5.8 42.5 51 -3.5 25.7
15:10 1010 29.83 839 24.78 5.5 41.8 67 -0.2 31.6
15:15 1010 29.83 840 24.81 3.6 38.5 72 -0.9 30.4
15:20 1011 29.85 840 24.81 2.8 37.1 79 -0.4 31.3
15:25 1011 29.85 840 24.81 2.3 36.1 83 -0.3 31.5
15:30 1011 29.85 840 24.81 2.5 36.5 79 -0.8 30.5
15:35 1011 29.85 840 24.81 2.8 37.1 76 -0.9 30.3
15:40 1011 29.85 840 24.81 3.5 38.3 72 -1.1 30
15:45 1011 29.85 840 24.81 4.3 39.7 65 -1.6 29.1
15:50 1011 29.85 840 24.81 4.7 40.4 65 -1.4 29.5
15:55 1011 29.85 840 24.81 4.8 40.6 71 -0.1 31.9
16:00 1011 29.85 840 24.81 3.9 39.1 68 -1.5 29.4
16:05 1011 29.85 840 24.81 4.5 40.1 67 -1.2 29.9
16:10 1011 29.85 840 24.81 4.4 39.9 64 -1.8 28.8
16:15 1011 29.85 840 24.81 4.1 39.4 68 -1.2 29.8
16:20 1011 29.85 840 24.81 4.2 39.6 64 -1.9 28.6
16:25 1011 29.85 840 24.81 5.7 42.3 57 -2 28.4
16:30 1011 29.85 840 24.81 6.5 43.7 55 -1.8 28.8
16:35 1011 29.85 840 24.81 6 42.8 53 -2.7 27.1
16:40 1011 29.85 841 24.83 5.5 41.9 52 -3.6 25.5
16:45 1011 29.85 841 24.83 5.4 41.7 53 -3.5 25.7
16:50 1011 29.85 841 24.83 4.9 40.8 59 -2.6 27.4
16:55 1012 29.88 841 24.83 4.2 39.5 61 -2.7 27.2
17:00 1012 29.88 841 24.83 3.7 38.7 59 -3.5 25.7
17:05 1012 29.88 841 24.83 3.5 38.4 59 -3.8 25.2
17:10 1011 29.85 841 24.83 3.4 38.1 57 -4.4 24
17:15 1011 29.85 841 24.83 3.9 39 58 -3.7 25.4
17:20 1012 29.88 841 24.83 4 39.2 59 -3.2 26.2
17:25 1012 29.88 841 24.83 4 39.2 57 -3.7 25.3
17:30 1012 29.88 841 24.83 4.2 39.6 57 -3.6 25.5
17:35 1012 29.88 841 24.83 4.7 40.4 53 -4 24.8
17:40 1012 29.88 841 24.83 4.8 40.7 48 -5.3 22.4
17:45 1012 29.88 841 24.83 4.7 40.5 49 -5.1 22.7
17:50 1012 29.88 841 24.83 4.5 40 49 -5.3 22.5
17:55 1012 29.88 841 24.83 4.2 39.5 51 -5.2 22.7
18:00 1012 29.88 842 24.86 4.2 39.5 50 -5.3 22.4
18:05 1012 29.88 842 24.86 4.2 39.6 52 -4.9 23.2
18:10 1012 29.88 842 24.86 4.1 39.5 51 -5.1 22.9
18:15 1013 29.91 842 24.86 4 39.2 52 -4.9 23.2
18:20 1013 29.91 842 24.86 3.8 38.9 55 -4.5 23.9
18:25 1013 29.91 842 24.86 3.3 37.9 59 -4 24.8
18:30 1013 29.91 842 24.86 2.8 37 61 -4 24.7
18:35 1013 29.91 842 24.86 2.7 36.8 61 -4.1 24.6
18:40 1013 29.91 842 24.86 2.6 36.7 62 -3.9 25
18:45 1013 29.91 842 24.86 2.5 36.6 63 -3.8 25.2
18:50 1013 29.91 842 24.86 2.3 36.2 65 -3.6 25.6
18:55 1013 29.91 842 24.86 2.2 36 66 -3.5 25.7
19:00 1013 29.91 842 24.86 2.1 35.9 65 -3.7 25.4
19:05 1013 29.91 842 24.86 2.3 36.2 65 -3.6 25.5
19:10 1013 29.91 842 24.86 2.2 36 65 -3.6 25.6
19:15 1013 29.91 843 24.89 2.1 35.8 66 -3.6 25.5
19:20 1013 29.91 843 24.89 2.1 35.8 65 -3.9 25
19:25 1014 29.94 843 24.89 2.1 35.8 64 -4 24.8
19:30 1014 29.94 843 24.89 2.1 35.8 63 -4.1 24.6
19:35 1014 29.94 843 24.89 2 35.7 63 -4.2 24.4
19:40 1014 29.94 843 24.89 1.9 35.4 62 -4.5 23.9
19:45 1014 29.94 843 24.89 1.8 35.2 63 -4.6 23.7
19:50 1014 29.94 843 24.89 1.9 35.4 62 -4.6 23.7
19:55 1014 29.94 843 24.89 1.9 35.4 63 -4.3 24.2
20:00 1014 29.94 844 24.92 1.9 35.4 62 -4.7 23.5
20:05 1014 29.94 844 24.92 2 35.5 60 -4.9 23.2
20:10 1014 29.94 844 24.92 2 35.5 61 -4.8 23.3
20:15 1015 29.97 844 24.92 2 35.6 60 -5 23
20:20 1015 29.97 844 24.92 2.1 35.8 60 -4.9 23.1
20:25 1015 29.97 844 24.92 2.2 36 59 -4.9 23.2
20:30 1015 29.97 844 24.92 2.2 35.9 60 -4.7 23.5
20:35 1015 29.97 844 24.92 2.3 36.1 61 -4.5 23.9
20:40 1015 29.97 844 24.92 2.2 36 60 -4.8 23.4
20:45 1015 29.97 844 24.92 2.2 36 59 -4.9 23.2
20:50 1015 29.97 844 24.92 2.3 36.1 59 -5 23
20:55 1015 29.97 844 24.92 2.3 36.2 60 -4.7 23.5
21:00 1015 29.97 845 24.95 2.3 36.2 61 -4.4 24
21:05 1015 29.97 845 24.95 2.3 36.2 66 -3.4 25.8
21:10 1016 30 845 24.95 2 35.7 71 -2.6 27.3
21:15 1016 30 845 24.95 1.8 35.3 74 -2.4 27.7
21:20 1016 30 845 24.95 1.4 34.5 79 -1.9 28.7
21:25 1016 30 845 24.95 1 33.8 83 -1.6 29.1
21:30 1016 30 845 24.95 0.7 33.2 86 -1.4 29.4
21:35 1016 30 845 24.95 0.5 32.9 88 -1.3 29.7
21:40 1016 30 845 24.95 0.3 32.5 89 -1.3 29.7
21:45 1016 30 845 24.95 0.2 32.4 89 -1.4 29.5
21:50 1016 30 845 24.95 0.3 32.6 87 -1.7 29
21:55 1016 30 845 24.95 0.3 32.5 87 -1.6 29.1
22:00 1016 30 846 24.98 0.2 32.4 88 -1.6 29.2
22:05 1016 30 846 24.98 0.3 32.5 89 -1.4 29.5
22:10 1016 30 846 24.98 0.3 32.6 85 -1.9 28.5
22:15 1017 30.03 846 24.98 0.6 33.1 84 -1.8 28.8
22:20 1017 30.03 846 24.98 0.6 33 85 -1.7 28.9
22:25 1017 30.03 846 24.98 0.5 32.8 85 -1.7 28.9
22:30 1017 30.03 846 24.98 0.4 32.6 87 -1.6 29.1
22:35 1017 30.03 846 24.98 0.3 32.6 85 -1.9 28.6
22:40 1017 30.03 846 24.98 0.5 32.9 84 -2 28.5
22:45 1017 30.03 846 24.98 0.5 33 84 -1.9 28.5
22:50 1017 30.03 846 24.98 0.7 33.3 80 -2.3 27.9
22:55 1017 30.03 846 24.98 0.8 33.5 80 -2.3 27.9
23:00 1017 30.03 846 24.98 0.9 33.6 78 -2.6 27.3
23:05 1017 30.03 846 24.98 0.9 33.6 81 -2.1 28.3
23:10 1017 30.03 846 24.98 0.5 33 86 -1.6 29.1
23:15 1017 30.03 847 25.01 0.3 32.5 86 -1.8 28.7
23:20 1017 30.03 847 25.01 0.3 32.6 85 -1.9 28.5
23:25 1017 30.03 847 25.01 0.5 32.8 82 -2.3 27.9
23:30 1018 30.06 847 25.01 0.8 33.5 76 -3 26.7
23:35 1018 30.06 847 25.01 1.1 34 76 -2.7 27.1
23:40 1018 30.06 847 25.01 1.2 34.2 74 -2.9 26.8
23:45 1018 30.06 847 25.01 1.4 34.4 72 -3.1 26.4
23:50 1018 30.06 847 25.01 1.4 34.6 73 -2.9 26.7
23:55 1018 30.06 847 25.01 1.5 34.7 74 -2.7 27.2
24:00 1018 30.06 847 25.01 1.3 34.3 76 -2.4 27.7